Latest Weather Observations for Mortlake

IDV60801

Issued at 5:35 pm EST Friday 25 April 2014 (issued every 30 minutes, with the page automatically refreshed every 10 minutes)

About weather observations | Map of weather stations | Latest weather observations for VIC | Other Formats
Station Details ID: 090176 Name: MORTLAKE RACECOURSE Lat: -38.07 Lon: 142.77 Height: 130.0 m
Data from the previous 72 hours. | See also: Recent months at Mortlake
Date/Time
EST
Temp
°C
App
Temp
°C
Dew
Point
Rel
Hum
%
Delta-T
°C
Wind Press
QNH
hPa
Press
MSL
hPa
Rain
since 9 am
mm
Dir
 
Spd
km/h
Gust
km/h
Spd
kts
Gust
kts
25/05:30pm 13.6 11.1 4.7 55 4.1 NNW 7 11 4 6 1012.4 - 0.0
25/05:00pm 15.6 11.4 4.0 46 5.4 NW 15 20 8 11 1012.7 1012.7 0.0
25/04:30pm 16.9 12.3 3.9 42 6.1 NW 17 24 9 13 1012.6 - 0.0
25/04:00pm 18.0 12.4 3.5 38 6.8 NNW 22 32 12 17 1012.8 1012.8 0.0
25/03:30pm 18.1 13.3 4.7 41 6.4 NNW 19 26 10 14 1012.7 - 0.0
25/03:00pm 18.4 14.3 4.2 39 6.8 NNW 15 24 8 13 1013.0 1013.0 0.0
25/02:30pm 18.2 13.6 3.7 38 6.8 NNW 17 26 9 14 1013.4 - 0.0
25/02:00pm 17.5 12.5 3.8 40 6.4 N 19 30 10 16 1014.1 1014.0 0.0
25/01:30pm 17.9 13.4 4.1 40 6.6 NNW 17 28 9 15 1014.7 - 0.0
25/01:00pm 17.5 13.0 4.1 41 6.3 N 17 26 9 14 1015.3 1015.2 0.0
25/12:30pm 17.2 12.3 4.2 42 6.2 NNW 19 26 10 14 1016.0 - 0.0
25/12:00pm 16.7 12.2 4.1 43 5.9 N 17 28 9 15 1016.5 1016.4 0.0
25/11:30am 16.3 12.1 5.9 50 5.1 N 17 24 9 13 1017.1 - 0.0
25/11:00am 15.3 11.4 5.5 52 4.7 N 15 20 8 11 1018.0 1017.9 0.0
25/10:30am 14.1 10.5 6.9 62 3.5 N 15 20 8 11 1018.8 - 0.0
25/10:00am 12.3 8.8 7.0 70 2.6 NNE 15 19 8 10 1019.0 1019.0 0.0
25/09:30am 10.0 6.0 6.7 80 1.6 N 17 24 9 13 1019.3 - 0.0
25/09:00am 8.2 4.6 6.8 91 0.7 N 15 20 8 11 1019.4 1019.4 0.2
25/08:30am 5.8 2.7 5.7 99 0.0 N 11 15 6 8 1019.7 - 0.2
25/08:00am 3.8 1.7 3.7 99 0.0 WNW 4 7 2 4 1019.8 1019.8 0.2
25/07:30am 2.3 -1.0 2.2 99 0.0 WNW 9 9 5 5 1019.7 - 0.2
25/07:00am 2.0 -1.8 1.9 99 0.0 WNW 11 13 6 7 1019.9 1019.9 0.2
25/06:30am 1.8 -1.2 1.7 99 0.0 WNW 7 9 4 5 1020.1 - 0.2
25/06:00am 2.3 -0.7 2.2 99 0.0 WNW 7 7 4 4 1020.0 1020.0 0.2
25/05:30am 2.7 0.0 2.6 99 0.0 WNW 6 7 3 4 1020.1 - 0.2
25/05:00am 2.8 0.1 2.7 99 0.0 WNW 6 7 3 4 1020.1 1020.1 0.2
25/04:30am 2.0 -0.8 1.9 99 0.0 WNW 6 6 3 3 1020.1 - 0.2
25/04:00am 1.5 -1.4 1.4 99 0.0 WNW 6 7 3 4 1020.6 1020.6 0.2
25/03:30am 2.3 -0.7 2.2 99 0.0 WNW 7 7 4 4 1020.3 - 0.2
25/03:00am 0.8 -2.4 0.7 99 0.0 WNW 7 7 4 4 1020.6 1020.6 0.2
25/02:30am 1.4 -1.1 1.3 99 0.0 SSE 4 6 2 3 1020.8 - 0.2
25/02:00am 1.5 -1.4 1.4 99 0.0 SSE 6 7 3 4 1020.9 1020.9 0.2
25/01:30am 2.3 -0.5 2.2 99 0.0 SSE 6 7 3 4 1021.2 - 0.2
25/01:00am 2.9 0.2 2.8 99 0.0 SSE 6 7 3 4 1021.1 1021.1 0.2
25/12:30am 2.6 0.3 2.5 99 0.0 SSE 4 6 2 3 1020.8 - 0.2
25/12:00am 4.2 2.9 4.1 99 0.0 SSE 0 2 0 1 1021.0 1021.0 0.2
 
Date/Time
EST
Temp
°C
App
Temp
°C
Dew
Point
Rel
Hum
%
Delta-T
°C
Wind Press
QNH
hPa
Press
MSL
hPa
Rain
since 9 am
mm
Dir
 
Spd
km/h
Gust
km/h
Spd
kts
Gust
kts
24/11:30pm 3.0 0.7 2.7 98 0.1 SSE 4 6 2 3 1021.2 - 0.2
24/11:00pm 3.9 1.8 3.8 99 0.0 SSE 4 6 2 3 1021.4 1021.4 0.2
24/10:30pm 3.6 1.0 3.2 97 0.2 SSE 6 7 3 4 1021.5 - 0.2
24/10:00pm 3.6 2.1 2.9 95 0.3 CALM 0 0 0 0 1022.0 1021.9 0.2
24/09:30pm 4.2 2.7 3.2 93 0.4 CALM 0 0 0 0 1021.9 - 0.2
24/09:00pm 4.7 3.3 3.5 92 0.5 CALM 0 0 0 0 1021.6 1021.6 0.2
24/08:30pm 5.6 4.2 3.8 88 0.8 CALM 0 0 0 0 1021.4 - 0.2
24/08:00pm 7.0 4.9 4.1 82 1.3 S 4 6 2 3 1021.0 1021.0 0.2
24/07:30pm 8.0 5.5 4.6 79 1.5 S 7 9 4 5 1020.9 - 0.2
24/07:00pm 8.6 6.3 4.8 77 1.7 S 6 7 3 4 1020.6 1020.6 0.2
24/06:30pm 9.7 7.4 4.9 72 2.2 S 6 7 3 4 1020.1 - 0.2
24/06:00pm 10.5 8.3 5.3 70 2.4 SSW 6 7 3 4 1019.9 1019.9 0.2
24/05:30pm 11.0 8.2 5.1 67 2.7 SSW 9 11 5 6 1019.5 - 0.2
24/05:00pm 12.4 8.1 5.3 62 3.3 SSW 17 22 9 12 1019.0 1019.0 0.2
24/04:30pm 13.2 8.6 5.6 60 3.6 SSW 19 24 10 13 1018.8 - 0.2
24/04:00pm 15.1 10.8 5.3 52 4.7 S 17 24 9 13 1018.5 1018.5 0.2
24/03:30pm 15.0 10.6 5.0 51 4.7 SW 17 24 9 13 1018.4 - 0.2
24/03:00pm 13.4 9.1 5.1 57 3.9 SSW 17 24 9 13 1018.2 1018.1 0.2
24/02:30pm 13.8 9.2 6.4 61 3.6 SSW 20 32 11 17 1018.2 - 0.2
24/02:00pm 15.5 10.5 4.8 49 5.0 SW 20 28 11 15 1018.2 1018.1 0.2
24/01:30pm 14.9 9.0 3.7 47 5.2 SSW 24 35 13 19 1018.1 - 0.2
24/01:00pm 16.3 11.5 5.6 49 5.2 SW 20 30 11 16 1017.9 1017.8 0.2
24/12:30pm 14.1 8.1 3.6 49 4.8 SW 24 37 13 20 1017.9 - 0.0
24/12:00pm 15.3 10.2 6.1 54 4.5 SW 22 39 12 21 1018.0 1017.9 0.0
24/11:30am 14.0 7.9 4.6 53 4.4 SW 26 35 14 19 1018.1 - 0.0
24/11:00am 14.3 8.2 2.9 46 5.1 SW 24 35 13 19 1017.7 1017.6 0.0
24/10:30am 13.2 7.5 5.1 58 3.8 SW 24 37 13 20 1017.6 - 0.0
24/10:00am 14.1 9.0 3.3 48 4.9 SW 19 28 10 15 1017.1 1017.0 0.0
24/09:30am 13.2 6.8 3.0 50 4.6 SW 26 33 14 18 1016.8 - 0.0
24/09:00am 12.5 7.0 5.7 63 3.2 SW 24 35 13 19 1016.4 1016.3 1.6
24/08:30am 11.8 8.4 7.7 76 2.0 WSW 15 22 8 12 1015.8 - 1.6
24/08:00am 11.4 8.4 7.7 78 1.8 WSW 13 20 7 11 1015.1 1015.0 1.6
24/07:30am 11.5 9.0 9.6 88 1.0 WSW 13 19 7 10 1014.4 - 1.6
24/07:00am 11.8 9.1 10.2 90 0.8 WSW 15 22 8 12 1013.6 1013.6 1.6
24/06:30am 11.7 9.7 11.5 99 0.1 WSW 13 19 7 10 1012.9 - 1.6
24/06:00am 12.2 10.0 12.0 99 0.1 WSW 15 20 8 11 1012.2 1012.2 1.6
24/05:30am 12.8 9.4 12.6 99 0.1 WSW 22 33 12 18 1011.5 - 1.0
24/05:00am 12.6 8.8 11.3 92 0.7 NW 22 32 12 17 1010.4 1010.3 0.2
24/04:30am 12.3 8.0 9.5 83 1.4 NW 22 30 12 16 1010.1 - 0.2
24/04:00am 12.9 7.9 9.4 79 1.8 NW 26 37 14 20 1010.0 1009.9 0.2
24/03:30am 12.4 7.5 8.5 77 1.9 NW 24 32 13 17 1009.7 - 0.2
24/03:00am 12.5 7.9 8.2 75 2.1 NW 22 32 12 17 1009.8 1009.7 0.2
24/02:30am 12.7 8.0 7.6 71 2.5 NW 22 30 12 16 1010.0 - 0.2
24/02:00am 14.0 8.6 7.8 66 3.1 NW 26 37 14 20 1010.3 1010.2 0.2
24/01:30am 13.8 8.6 7.1 64 3.3 NW 24 32 13 17 1010.5 - 0.2
24/01:00am 13.0 9.0 6.8 66 3.0 NNW 17 22 9 12 1010.7 1010.6 0.2
24/12:30am 11.6 8.4 6.9 73 2.3 NNW 13 15 7 8 1010.9 - 0.2
24/12:00am 12.0 9.0 7.5 74 2.2 NW 13 17 7 9 1011.1 1011.0 0.2
 
Date/Time
EST
Temp
°C
App
Temp
°C
Dew
Point
Rel
Hum
%
Delta-T
°C
Wind Press
QNH
hPa
Press
MSL
hPa
Rain
since 9 am
mm
Dir
 
Spd
km/h
Gust
km/h
Spd
kts
Gust
kts
23/11:30pm 12.1 8.3 7.6 74 2.2 NW 17 22 9 12 1011.6 - 0.2
23/11:00pm 11.9 7.8 8.0 77 1.9 NNW 19 22 10 12 1011.8 1011.7 0.2
23/10:30pm 10.7 7.3 7.8 82 1.4 N 15 17 8 9 1012.2 - 0.2
23/10:00pm 9.8 7.1 7.2 84 1.2 NNW 11 13 6 7 1012.4 1012.4 0.2
23/09:30pm 10.4 7.7 7.3 81 1.5 N 11 13 6 7 1012.5 - 0.2
23/09:00pm 10.5 7.9 7.6 82 1.4 N 11 15 6 8 1012.6 1012.6 0.2
23/08:30pm 10.8 7.8 7.9 82 1.4 N 13 15 7 8 1012.6 - 0.2
23/08:00pm 10.6 7.6 7.8 83 1.4 N 13 13 7 7 1012.8 1012.8 0.2
23/07:30pm 10.9 8.8 8.1 83 1.4 N 9 11 5 6 1013.0 - 0.2
23/07:00pm 10.8 9.0 7.9 82 1.4 N 7 7 4 4 1012.8 1012.8 0.2
23/06:30pm 11.8 9.9 7.7 76 2.0 N 7 7 4 4 1012.7 - 0.2
23/06:00pm 12.7 10.9 8.0 73 2.3 NNW 7 7 4 4 1012.8 1012.8 0.2
23/05:30pm 13.8 12.0 7.8 67 3.0 NNW 7 9 4 5 1012.8 - 0.2
23/05:00pm 15.6 12.1 7.4 58 4.1 NW 15 20 8 11 1012.8 1012.8 0.2
23/04:30pm 16.4 13.0 7.6 56 4.4 NW 15 20 8 11 1012.9 - 0.2
23/04:00pm 17.6 13.8 7.6 52 5.1 NNW 17 22 9 12 1013.1 1013.1 0.2
23/03:30pm 17.1 12.8 7.7 54 4.8 NW 20 28 11 15 1013.2 - 0.2
23/03:00pm 16.8 13.1 8.0 56 4.5 NW 17 24 9 13 1013.5 1013.5 0.2
23/02:30pm 17.7 13.4 7.7 52 5.1 WNW 20 32 11 17 1014.0 - 0.2
23/02:00pm 17.0 13.4 8.2 56 4.5 NW 17 26 9 14 1014.2 1014.1 0.2
23/01:30pm 16.9 13.4 8.6 58 4.3 WNW 17 24 9 13 1014.5 - 0.2
23/01:00pm 16.6 12.3 7.8 56 4.5 NW 20 28 11 15 1014.8 1014.7 0.0
23/12:30pm 15.6 11.8 7.6 59 4.0 NW 17 26 9 14 1015.1 - 0.0
23/12:00pm 15.3 11.7 8.3 63 3.5 NW 17 26 9 14 1015.9 1015.8 0.0
23/11:30am 15.6 12.1 8.8 64 3.5 NW 17 26 9 14 1016.4 - 0.0
23/11:00am 15.2 12.4 10.0 71 2.7 NW 15 22 8 12 1016.9 1016.8 0.0
23/10:30am 14.5 11.6 11.1 80 1.8 NW 17 22 9 12 1017.3 - 0.0
23/10:00am 13.0 10.5 11.2 89 1.0 NNW 15 19 8 10 1017.4 1017.3 0.0
23/09:30am 11.4 9.3 11.2 99 0.1 NNW 13 17 7 9 1017.4 - 0.0
23/09:00am 10.2 8.6 10.1 99 0.1 N 9 13 5 7 1017.4 1017.3 0.0
23/08:30am 9.2 7.3 9.1 99 0.0 N 9 11 5 6 1017.4 - 0.0
23/08:00am 7.3 5.5 7.2 99 0.0 WSW 6 11 3 6 1017.2 1017.1 0.0
23/07:30am 4.6 2.1 4.5 99 0.0 WSW 7 9 4 5 1017.2 - 0.0
23/07:00am 2.2 -0.8 2.1 99 0.0 WSW 7 7 4 4 1017.1 1017.0 0.0
23/06:30am 4.1 1.6 4.0 99 0.0 WSW 6 7 3 4 1016.8 - 0.0
23/06:00am 4.4 1.8 4.3 99 0.0 WSW 7 9 4 5 1016.6 1016.5 0.0
23/05:30am 3.4 0.6 3.3 99 0.0 WSW 7 7 4 4 1016.5 - 0.0
23/05:00am 3.3 0.5 3.2 99 0.0 WSW 7 9 4 5 1016.6 1016.5 0.0
23/04:30am 3.6 0.9 3.5 99 0.0 WSW 7 7 4 4 1016.5 - 0.0
23/04:00am 3.8 1.3 3.7 99 0.0 WSW 6 6 3 3 1016.5 1016.4 0.0
23/03:30am 2.9 0.2 2.8 99 0.0 WSW 6 7 3 4 1016.3 - 0.0
23/03:00am 4.5 2.1 4.4 99 0.0 WSW 6 6 3 3 1016.7 1016.6 0.0
23/02:30am 5.1 2.8 5.0 99 0.0 WSW 6 7 3 4 1016.8 - 0.0
23/02:00am 4.5 1.9 4.4 99 0.0 WSW 7 9 4 5 1017.1 1017.0 0.0
23/01:30am 4.7 2.4 4.6 99 0.0 WSW 6 7 3 4 1017.4 - 0.0
23/01:00am 5.2 3.0 5.1 99 0.0 WSW 6 7 3 4 1017.6 1017.5 0.0
23/12:30am 5.0 2.5 4.9 99 0.0 WSW 7 7 4 4 1017.7 - 0.0
23/12:00am 5.5 3.3 5.4 99 0.0 WSW 6 7 3 4 1017.8 1017.7 0.0
 
Date/Time
EST
Temp
°C
App
Temp
°C
Dew
Point
Rel
Hum
%
Delta-T
°C
Wind Press
QNH
hPa
Press
MSL
hPa
Rain
since 9 am
mm
Dir
 
Spd
km/h
Gust
km/h
Spd
kts
Gust
kts
22/11:30pm 5.5 3.3 5.4 99 0.0 WSW 6 6 3 3 1018.0 - 0.0
22/11:00pm 5.1 2.6 5.0 99 0.0 WSW 7 13 4 7 1018.1 1018.0 0.0
22/10:30pm 5.2 3.3 5.1 99 0.0 WSW 4 6 2 3 1018.2 - 0.0
22/10:00pm 5.7 3.9 5.6 99 0.0 WSW 4 6 2 3 1018.2 1018.1 0.0
22/09:30pm 7.9 6.6 7.8 99 0.0 WSW 4 4 2 2 1018.2 - 0.0
22/09:00pm 6.6 5.4 6.5 99 0.0 SSW 2 4 1 2 1018.1 1018.0 0.0
22/08:30pm 7.0 5.5 6.9 99 0.0 S 4 4 2 2 1018.0 - 0.0
22/08:00pm 7.9 6.9 7.3 96 0.3 S 2 4 1 2 1017.8 1017.7 0.0
22/07:30pm 8.5 7.9 7.4 93 0.5 CALM 0 0 0 0 1017.6 - 0.0
22/07:00pm 9.2 8.1 7.0 86 1.0 S 2 4 1 2 1017.5 1017.4 0.0
22/06:30pm 11.1 9.5 8.0 81 1.5 SSW 6 7 3 4 1017.1 - 0.0
22/06:00pm 12.0 10.2 7.9 76 2.0 SSW 7 9 4 5 1016.9 1016.8 0.0

Other Formats:

Comma delimited format used in spreadsheet applications
http://www.bom.gov.au/fwo/IDV60801/IDV60801.94840.axf

JavaScript Object Notation format (JSON) in row-major order
http://www.bom.gov.au/fwo/IDV60801/IDV60801.94840.json